CAL503 RCTP-ZSPD
Flight info
| Callsign | CAL503 |
|---|---|
| Flight time | 1h 5m |
| Altitude | 37000 |
| Route | PIANO1A PIANO L3 VIOLA R596 SULEM/K0913S1100 R596 DST/K0906S1130 B221 SHZ W58 XSY |
| Aircraft | B77W/H-SDE1E2E3FGHIJ2J3J4J5M1RWXY/LB1D1 |
Departure
| Time | 2026-05-06 10:11 |
|---|---|
| Airport | Taiwan Taoyuan International Airport (RCTP) |
Arrival
| Time | 2026-05-06 11:17 |
|---|---|
| Airport | Shanghai Pudong International Airport (ZSPD) |
| Time | Latitude | Longitude | Altitude | Speed | Heading |
|---|---|---|---|---|---|
| 2026-05-06 09:46 | 25.07734 | 121.22800 | 95 ft | 0 kts | 140° |
| 2026-05-06 10:01 | 25.07741 | 121.22793 | 93 ft | 4 kts | 140° |
| 2026-05-06 10:02 | 25.07761 | 121.22774 | 94 ft | 2 kts | 140° |
| 2026-05-06 10:02 | 25.07779 | 121.22759 | 94 ft | 4 kts | 150° |
| 2026-05-06 10:02 | 25.07804 | 121.22747 | 93 ft | 4 kts | 167° |
| 2026-05-06 10:02 | 25.07828 | 121.22742 | 91 ft | 1 kts | 171° |
| 2026-05-06 10:03 | 25.07829 | 121.22742 | 93 ft | 0 kts | 171° |
| 2026-05-06 10:04 | 25.07824 | 121.22742 | 90 ft | 1 kts | 176° |
| 2026-05-06 10:05 | 25.07789 | 121.22717 | 95 ft | 13 kts | 226° |
| 2026-05-06 10:05 | 25.07703 | 121.22619 | 96 ft | 18 kts | 227° |
| 2026-05-06 10:05 | 25.07623 | 121.22514 | 96 ft | 18 kts | 230° |
| 2026-05-06 10:05 | 25.07545 | 121.22412 | 98 ft | 18 kts | 229° |
| 2026-05-06 10:06 | 25.07464 | 121.22309 | 97 ft | 18 kts | 229° |
| 2026-05-06 10:06 | 25.07384 | 121.22208 | 98 ft | 18 kts | 229° |
| 2026-05-06 10:06 | 25.07303 | 121.22106 | 98 ft | 18 kts | 229° |
| 2026-05-06 10:06 | 25.07257 | 121.22066 | 96 ft | 7 kts | 201° |
| 2026-05-06 10:07 | 25.07194 | 121.22094 | 99 ft | 12 kts | 142° |
| 2026-05-06 10:07 | 25.07118 | 121.22162 | 99 ft | 16 kts | 141° |
| 2026-05-06 10:07 | 25.07017 | 121.22254 | 98 ft | 21 kts | 140° |
| 2026-05-06 10:07 | 25.06942 | 121.22330 | 98 ft | 23 kts | 138° |
| 2026-05-06 10:08 | 25.06822 | 121.22441 | 95 ft | 23 kts | 139° |
| 2026-05-06 10:08 | 25.06703 | 121.22554 | 98 ft | 23 kts | 139° |
| 2026-05-06 10:08 | 25.06572 | 121.22631 | 96 ft | 22 kts | 196° |
| 2026-05-06 10:08 | 25.06461 | 121.22511 | 99 ft | 22 kts | 229° |
| 2026-05-06 10:09 | 25.06359 | 121.22380 | 100 ft | 22 kts | 229° |
| 2026-05-06 10:09 | 25.06227 | 121.22367 | 101 ft | 22 kts | 137° |
| 2026-05-06 10:09 | 25.06207 | 121.22511 | 99 ft | 15 kts | 49° |
| 2026-05-06 10:09 | 25.06213 | 121.22517 | 100 ft | 1 kts | 48° |
| 2026-05-06 10:10 | 25.06218 | 121.22524 | 100 ft | 2 kts | 48° |
| 2026-05-06 10:10 | 25.06227 | 121.22536 | 99 ft | 2 kts | 48° |
| 2026-05-06 10:10 | 25.06254 | 121.22570 | 100 ft | 18 kts | 48° |
| 2026-05-06 10:10 | 25.06451 | 121.22819 | 95 ft | 80 kts | 49° |
| 2026-05-06 10:11 | 25.06993 | 121.23504 | 97 ft | 155 kts | 48° |
| 2026-05-06 10:11 | 25.07776 | 121.24478 | 577 ft | 179 kts | 47° |
| 2026-05-06 10:11 | 25.08662 | 121.25522 | 1507 ft | 193 kts | 48° |
| 2026-05-06 10:11 | 25.09638 | 121.26635 | 3071 ft | 217 kts | 49° |
| 2026-05-06 10:12 | 25.10676 | 121.27890 | 4800 ft | 220 kts | 46° |
| 2026-05-06 10:12 | 25.11834 | 121.29009 | 6381 ft | 232 kts | 30° |
| 2026-05-06 10:12 | 25.13234 | 121.29933 | 7838 ft | 234 kts | 22° |
| 2026-05-06 10:12 | 25.14836 | 121.30317 | 8897 ft | 253 kts | 356° |
| 2026-05-06 10:13 | 25.16684 | 121.30096 | 9191 ft | 279 kts | 343° |
| 2026-05-06 10:13 | 25.18600 | 121.29608 | 10121 ft | 279 kts | 343° |
| 2026-05-06 10:13 | 25.20481 | 121.29165 | 11156 ft | 282 kts | 347° |
| 2026-05-06 10:13 | 25.22528 | 121.28880 | 11494 ft | 313 kts | 352° |
| 2026-05-06 10:14 | 25.24812 | 121.28697 | 11734 ft | 345 kts | 354° |
| 2026-05-06 10:14 | 25.27316 | 121.28570 | 11965 ft | 375 kts | 355° |
| 2026-05-06 10:14 | 25.29979 | 121.28473 | 12625 ft | 387 kts | 356° |
| 2026-05-06 10:14 | 25.32694 | 121.28382 | 13510 ft | 393 kts | 356° |
| 2026-05-06 10:15 | 25.35435 | 121.28310 | 14362 ft | 392 kts | 359° |
| 2026-05-06 10:15 | 25.38141 | 121.28890 | 15062 ft | 404 kts | 20° |
| 2026-05-06 10:15 | 25.40611 | 121.30444 | 15798 ft | 415 kts | 37° |
| 2026-05-06 10:15 | 25.42628 | 121.32745 | 16497 ft | 420 kts | 48° |
| 2026-05-06 10:16 | 25.44511 | 121.35194 | 17215 ft | 425 kts | 48° |
| 2026-05-06 10:16 | 25.46435 | 121.37715 | 17927 ft | 431 kts | 47° |
| 2026-05-06 10:16 | 25.48388 | 121.40269 | 18640 ft | 435 kts | 47° |
| 2026-05-06 10:16 | 25.50347 | 121.42814 | 19337 ft | 438 kts | 47° |
| 2026-05-06 10:17 | 25.52344 | 121.45392 | 19992 ft | 443 kts | 47° |
| 2026-05-06 10:17 | 25.54367 | 121.47993 | 20651 ft | 447 kts | 47° |
| 2026-05-06 10:17 | 25.56413 | 121.50616 | 21319 ft | 451 kts | 47° |
| 2026-05-06 10:17 | 25.58473 | 121.53256 | 21976 ft | 455 kts | 46° |
| 2026-05-06 10:18 | 25.60689 | 121.55728 | 22459 ft | 452 kts | 33° |
| 2026-05-06 10:18 | 25.63500 | 121.57261 | 22917 ft | 452 kts | 12° |
| 2026-05-06 10:18 | 25.66603 | 121.57651 | 23550 ft | 450 kts | 356° |
| 2026-05-06 10:18 | 25.69699 | 121.57220 | 24139 ft | 448 kts | 346° |
| 2026-05-06 10:19 | 25.72736 | 121.56422 | 24686 ft | 450 kts | 344° |
| 2026-05-06 10:19 | 25.75789 | 121.55553 | 25199 ft | 453 kts | 343° |
| 2026-05-06 10:19 | 25.78852 | 121.54659 | 25719 ft | 457 kts | 343° |
| 2026-05-06 10:19 | 25.81933 | 121.53761 | 26236 ft | 460 kts | 343° |
| 2026-05-06 10:20 | 25.85006 | 121.52877 | 26752 ft | 463 kts | 343° |
| 2026-05-06 10:20 | 25.88141 | 121.51988 | 27255 ft | 466 kts | 343° |
| 2026-05-06 10:20 | 25.91314 | 121.51102 | 27669 ft | 471 kts | 343° |
| 2026-05-06 10:20 | 25.94495 | 121.50215 | 28125 ft | 474 kts | 343° |
| 2026-05-06 10:21 | 25.97718 | 121.49321 | 28609 ft | 477 kts | 343° |
| 2026-05-06 10:21 | 26.00943 | 121.48427 | 29070 ft | 479 kts | 343° |
| 2026-05-06 10:21 | 26.04193 | 121.47527 | 29481 ft | 482 kts | 343° |
| 2026-05-06 10:21 | 26.07459 | 121.46622 | 29885 ft | 485 kts | 343° |
| 2026-05-06 10:22 | 26.10740 | 121.45712 | 30246 ft | 487 kts | 343° |
| 2026-05-06 10:22 | 26.13986 | 121.44811 | 30687 ft | 485 kts | 343° |
| 2026-05-06 10:22 | 26.17258 | 121.43904 | 31234 ft | 482 kts | 343° |
| 2026-05-06 10:22 | 26.20500 | 121.43004 | 31808 ft | 478 kts | 343° |
| 2026-05-06 10:23 | 26.23722 | 121.42108 | 32347 ft | 475 kts | 343° |
| 2026-05-06 10:23 | 26.26931 | 121.41215 | 32846 ft | 473 kts | 343° |
| 2026-05-06 10:23 | 26.30123 | 121.40326 | 33336 ft | 472 kts | 343° |
| 2026-05-06 10:23 | 26.33262 | 121.39450 | 33813 ft | 470 kts | 343° |
| 2026-05-06 10:24 | 26.36467 | 121.38556 | 34272 ft | 468 kts | 343° |
| 2026-05-06 10:24 | 26.39620 | 121.37676 | 34668 ft | 466 kts | 343° |
| 2026-05-06 10:24 | 26.42764 | 121.36797 | 35046 ft | 465 kts | 343° |
| 2026-05-06 10:24 | 26.45863 | 121.35931 | 35417 ft | 464 kts | 342° |
| 2026-05-06 10:25 | 26.48993 | 121.35056 | 35794 ft | 463 kts | 342° |
| 2026-05-06 10:25 | 26.52117 | 121.34183 | 36170 ft | 461 kts | 342° |
| 2026-05-06 10:25 | 26.55223 | 121.33313 | 36531 ft | 460 kts | 342° |
| 2026-05-06 10:25 | 26.58327 | 121.32444 | 36881 ft | 459 kts | 342° |
| 2026-05-06 10:26 | 26.64578 | 121.30689 | 36987 ft | 464 kts | 342° |
| 2026-05-06 10:26 | 26.70774 | 121.28952 | 36984 ft | 458 kts | 342° |
| 2026-05-06 10:27 | 26.76949 | 121.27219 | 36991 ft | 456 kts | 342° |
| 2026-05-06 10:27 | 26.83102 | 121.25488 | 36992 ft | 455 kts | 342° |
| 2026-05-06 10:28 | 26.89248 | 121.23758 | 36991 ft | 456 kts | 342° |
| 2026-05-06 10:28 | 26.95376 | 121.22030 | 36998 ft | 457 kts | 342° |
| 2026-05-06 10:29 | 27.01566 | 121.20282 | 36997 ft | 459 kts | 342° |
| 2026-05-06 10:29 | 27.07770 | 121.18529 | 36993 ft | 460 kts | 342° |
| 2026-05-06 10:30 | 27.13993 | 121.16770 | 36998 ft | 461 kts | 342° |
| 2026-05-06 10:30 | 27.20221 | 121.15007 | 37004 ft | 462 kts | 342° |
| 2026-05-06 10:31 | 27.26463 | 121.13238 | 36994 ft | 462 kts | 342° |
| 2026-05-06 10:31 | 27.32661 | 121.11479 | 36993 ft | 462 kts | 342° |
| 2026-05-06 10:32 | 27.38900 | 121.09707 | 36993 ft | 461 kts | 342° |
| 2026-05-06 10:32 | 27.45123 | 121.07937 | 36992 ft | 461 kts | 342° |
| 2026-05-06 10:33 | 27.51336 | 121.06168 | 36995 ft | 460 kts | 342° |
| 2026-05-06 10:33 | 27.57549 | 121.04396 | 36997 ft | 460 kts | 342° |
| 2026-05-06 10:34 | 27.63717 | 121.02635 | 36997 ft | 460 kts | 342° |
| 2026-05-06 10:34 | 27.69907 | 121.00866 | 37001 ft | 460 kts | 342° |
| 2026-05-06 10:35 | 27.76121 | 120.99088 | 37002 ft | 460 kts | 342° |
| 2026-05-06 10:35 | 27.82325 | 120.97311 | 36998 ft | 460 kts | 342° |
| 2026-05-06 10:36 | 27.88543 | 120.95528 | 37003 ft | 460 kts | 342° |
| 2026-05-06 10:36 | 27.94731 | 120.93751 | 37002 ft | 461 kts | 342° |
| 2026-05-06 10:37 | 28.00958 | 120.91961 | 37013 ft | 462 kts | 342° |
| 2026-05-06 10:37 | 28.07164 | 120.90174 | 37015 ft | 463 kts | 342° |
| 2026-05-06 10:38 | 28.13420 | 120.88372 | 37001 ft | 464 kts | 342° |
| 2026-05-06 10:38 | 28.19682 | 120.86565 | 37000 ft | 464 kts | 342° |
| 2026-05-06 10:39 | 28.25905 | 120.84769 | 37009 ft | 464 kts | 342° |
| 2026-05-06 10:39 | 28.32178 | 120.82954 | 36994 ft | 465 kts | 342° |
| 2026-05-06 10:40 | 28.38455 | 120.81136 | 36994 ft | 464 kts | 342° |
| 2026-05-06 10:40 | 28.44718 | 120.79321 | 36993 ft | 464 kts | 342° |
| 2026-05-06 10:41 | 28.50930 | 120.77518 | 36983 ft | 463 kts | 342° |
| 2026-05-06 10:41 | 28.57167 | 120.75705 | 37014 ft | 462 kts | 342° |
| 2026-05-06 10:42 | 28.63405 | 120.73888 | 36987 ft | 462 kts | 342° |
| 2026-05-06 10:42 | 28.69788 | 120.72749 | 36992 ft | 467 kts | 353° |
| 2026-05-06 10:43 | 28.76324 | 120.72864 | 36977 ft | 473 kts | 1° |
| 2026-05-06 10:44 | 28.86162 | 120.74037 | 36981 ft | 474 kts | 1° |
| 2026-05-06 10:44 | 28.92694 | 120.74718 | 36973 ft | 474 kts | 1° |
| 2026-05-06 10:45 | 28.99284 | 120.75386 | 36970 ft | 475 kts | 1° |
| 2026-05-06 10:45 | 29.05864 | 120.76061 | 36978 ft | 475 kts | 1° |
| 2026-05-06 10:46 | 29.12453 | 120.76743 | 36971 ft | 475 kts | 1° |
| 2026-05-06 10:46 | 29.19041 | 120.77428 | 36969 ft | 475 kts | 1° |
| 2026-05-06 10:47 | 29.25627 | 120.78113 | 36961 ft | 475 kts | 1° |
| 2026-05-06 10:47 | 29.32171 | 120.78795 | 36965 ft | 474 kts | 1° |
| 2026-05-06 10:48 | 29.38745 | 120.79480 | 36956 ft | 474 kts | 1° |
| 2026-05-06 10:48 | 29.45318 | 120.80165 | 36947 ft | 473 kts | 1° |
| 2026-05-06 10:49 | 29.51870 | 120.80849 | 36947 ft | 472 kts | 1° |
| 2026-05-06 10:49 | 29.58318 | 120.82312 | 36941 ft | 483 kts | 22° |
| 2026-05-06 10:49 | 29.61172 | 120.84409 | 36948 ft | 492 kts | 36° |
| 2026-05-06 10:50 | 29.63509 | 120.87324 | 36932 ft | 501 kts | 52° |
| 2026-05-06 10:50 | 29.67245 | 120.94068 | 36937 ft | 506 kts | 54° |
| 2026-05-06 10:51 | 29.71044 | 121.00920 | 36941 ft | 509 kts | 53° |
| 2026-05-06 10:51 | 29.74922 | 121.07749 | 36945 ft | 511 kts | 53° |
| 2026-05-06 10:52 | 29.78836 | 121.14586 | 36932 ft | 511 kts | 53° |
| 2026-05-06 10:52 | 29.82716 | 121.21389 | 36940 ft | 511 kts | 53° |
| 2026-05-06 10:53 | 29.86614 | 121.28216 | 36943 ft | 508 kts | 51° |
| 2026-05-06 10:53 | 29.91363 | 121.34093 | 36944 ft | 497 kts | 34° |
| 2026-05-06 10:53 | 29.94129 | 121.36457 | 36740 ft | 495 kts | 28° |
| 2026-05-06 10:54 | 29.97145 | 121.38454 | 35779 ft | 495 kts | 23° |
| 2026-05-06 10:54 | 30.00159 | 121.40268 | 34942 ft | 484 kts | 22° |
| 2026-05-06 10:54 | 30.03176 | 121.42061 | 34054 ft | 489 kts | 22° |
| 2026-05-06 10:54 | 30.06183 | 121.43818 | 32962 ft | 492 kts | 19° |
| 2026-05-06 10:55 | 30.09387 | 121.45271 | 31697 ft | 497 kts | 13° |
| 2026-05-06 10:55 | 30.12730 | 121.46355 | 30470 ft | 500 kts | 6° |
| 2026-05-06 10:55 | 30.16163 | 121.47071 | 29444 ft | 500 kts | 5° |
| 2026-05-06 10:55 | 30.19565 | 121.47738 | 28696 ft | 493 kts | 5° |
| 2026-05-06 10:56 | 30.22898 | 121.48398 | 27908 ft | 473 kts | 5° |
| 2026-05-06 10:56 | 30.26091 | 121.49042 | 26513 ft | 460 kts | 5° |
| 2026-05-06 10:56 | 30.29261 | 121.49683 | 25205 ft | 463 kts | 6° |
| 2026-05-06 10:56 | 30.32410 | 121.50325 | 24347 ft | 459 kts | 6° |
| 2026-05-06 10:57 | 30.34484 | 121.50751 | 23954 ft | 456 kts | 7° |
| 2026-05-06 10:57 | 30.37552 | 121.51385 | 23274 ft | 455 kts | 7° |
| 2026-05-06 10:57 | 30.40664 | 121.52030 | 22544 ft | 452 kts | 7° |
| 2026-05-06 10:57 | 30.44750 | 121.52881 | 21673 ft | 447 kts | 7° |
| 2026-05-06 10:58 | 30.46815 | 121.53311 | 21246 ft | 444 kts | 7° |
| 2026-05-06 10:58 | 30.49851 | 121.53942 | 20613 ft | 441 kts | 7° |
| 2026-05-06 10:58 | 30.52860 | 121.54568 | 19996 ft | 437 kts | 7° |
| 2026-05-06 10:58 | 30.55809 | 121.55182 | 19375 ft | 435 kts | 7° |
| 2026-05-06 10:59 | 30.58783 | 121.55802 | 18757 ft | 432 kts | 7° |
| 2026-05-06 10:59 | 30.61738 | 121.56417 | 18106 ft | 430 kts | 7° |
| 2026-05-06 10:59 | 30.64685 | 121.57032 | 17412 ft | 428 kts | 7° |
| 2026-05-06 10:59 | 30.67597 | 121.57640 | 16780 ft | 424 kts | 7° |
| 2026-05-06 11:00 | 30.70486 | 121.58244 | 16167 ft | 420 kts | 7° |
| 2026-05-06 11:00 | 30.74277 | 121.59036 | 15362 ft | 415 kts | 8° |
| 2026-05-06 11:00 | 30.76156 | 121.59429 | 14970 ft | 412 kts | 8° |
| 2026-05-06 11:00 | 30.78972 | 121.60018 | 14372 ft | 409 kts | 8° |
| 2026-05-06 11:01 | 30.81767 | 121.60603 | 13769 ft | 407 kts | 8° |
| 2026-05-06 11:01 | 30.84542 | 121.61185 | 13165 ft | 403 kts | 8° |
| 2026-05-06 11:01 | 30.87292 | 121.61761 | 12534 ft | 400 kts | 8° |
| 2026-05-06 11:01 | 30.89947 | 121.62320 | 12333 ft | 371 kts | 8° |
| 2026-05-06 11:02 | 30.92383 | 121.62836 | 12164 ft | 342 kts | 8° |
| 2026-05-06 11:02 | 30.94637 | 121.63311 | 12017 ft | 316 kts | 8° |
| 2026-05-06 11:02 | 30.96724 | 121.63750 | 11884 ft | 294 kts | 8° |
| 2026-05-06 11:02 | 30.98656 | 121.64156 | 11763 ft | 273 kts | 7° |
| 2026-05-06 11:03 | 31.00455 | 121.64535 | 11652 ft | 253 kts | 7° |
| 2026-05-06 11:03 | 31.02121 | 121.64884 | 11545 ft | 233 kts | 7° |
| 2026-05-06 11:03 | 31.03711 | 121.65216 | 11507 ft | 238 kts | 6° |
| 2026-05-06 11:03 | 31.05401 | 121.65565 | 11429 ft | 252 kts | 7° |
| 2026-05-06 11:04 | 31.07122 | 121.65926 | 11308 ft | 249 kts | 7° |
| 2026-05-06 11:04 | 31.08776 | 121.66276 | 11181 ft | 240 kts | 7° |
| 2026-05-06 11:04 | 31.10389 | 121.66617 | 11068 ft | 235 kts | 6° |
| 2026-05-06 11:04 | 31.12046 | 121.66963 | 10886 ft | 247 kts | 6° |
| 2026-05-06 11:05 | 31.13738 | 121.66943 | 10569 ft | 241 kts | 341° |
| 2026-05-06 11:05 | 31.15317 | 121.66333 | 10320 ft | 240 kts | 339° |
| 2026-05-06 11:05 | 31.16914 | 121.65713 | 10037 ft | 245 kts | 339° |
| 2026-05-06 11:05 | 31.18549 | 121.65084 | 9701 ft | 249 kts | 339° |
| 2026-05-06 11:06 | 31.20200 | 121.64453 | 9374 ft | 249 kts | 339° |
| 2026-05-06 11:06 | 31.21850 | 121.63825 | 9050 ft | 249 kts | 339° |
| 2026-05-06 11:06 | 31.23495 | 121.63199 | 8742 ft | 248 kts | 339° |
| 2026-05-06 11:06 | 31.25139 | 121.62574 | 8437 ft | 248 kts | 339° |
| 2026-05-06 11:07 | 31.26781 | 121.61951 | 8127 ft | 248 kts | 340° |
| 2026-05-06 11:07 | 31.28425 | 121.61328 | 7826 ft | 248 kts | 340° |
| 2026-05-06 11:07 | 31.30053 | 121.60711 | 7519 ft | 248 kts | 340° |
| 2026-05-06 11:07 | 31.31717 | 121.60081 | 7216 ft | 248 kts | 339° |
| 2026-05-06 11:08 | 31.33319 | 121.59474 | 6889 ft | 241 kts | 339° |
| 2026-05-06 11:08 | 31.34879 | 121.58888 | 6588 ft | 230 kts | 338° |
| 2026-05-06 11:08 | 31.36378 | 121.58319 | 6308 ft | 225 kts | 338° |
| 2026-05-06 11:08 | 31.37893 | 121.57738 | 6046 ft | 233 kts | 339° |
| 2026-05-06 11:09 | 31.39484 | 121.57338 | 5730 ft | 239 kts | 1° |
| 2026-05-06 11:09 | 31.41041 | 121.57978 | 5462 ft | 241 kts | 39° |
| 2026-05-06 11:09 | 31.41974 | 121.59570 | 5134 ft | 240 kts | 79° |
| 2026-05-06 11:09 | 31.41856 | 121.61462 | 4733 ft | 234 kts | 122° |
| 2026-05-06 11:10 | 31.40823 | 121.62808 | 4518 ft | 217 kts | 141° |
| 2026-05-06 11:10 | 31.39772 | 121.64088 | 4196 ft | 219 kts | 133° |
| 2026-05-06 11:10 | 31.38864 | 121.65512 | 3931 ft | 218 kts | 128° |
| 2026-05-06 11:10 | 31.38034 | 121.66995 | 3669 ft | 217 kts | 125° |
| 2026-05-06 11:11 | 31.37247 | 121.68490 | 3400 ft | 214 kts | 124° |
| 2026-05-06 11:11 | 31.36477 | 121.69966 | 3136 ft | 208 kts | 128° |
| 2026-05-06 11:11 | 31.35433 | 121.70963 | 2988 ft | 190 kts | 157° |
| 2026-05-06 11:11 | 31.34196 | 121.71582 | 2962 ft | 197 kts | 159° |
| 2026-05-06 11:12 | 31.32963 | 121.72153 | 2952 ft | 182 kts | 161° |
| 2026-05-06 11:12 | 31.31813 | 121.72620 | 2915 ft | 170 kts | 163° |
| 2026-05-06 11:12 | 31.30699 | 121.73052 | 2934 ft | 166 kts | 163° |
| 2026-05-06 11:12 | 31.29578 | 121.73479 | 2725 ft | 170 kts | 163° |
| 2026-05-06 11:13 | 31.28454 | 121.73906 | 2515 ft | 168 kts | 162° |
| 2026-05-06 11:13 | 31.27359 | 121.74323 | 2297 ft | 162 kts | 162° |
| 2026-05-06 11:13 | 31.26338 | 121.74712 | 2075 ft | 146 kts | 162° |
| 2026-05-06 11:13 | 31.25395 | 121.75069 | 1946 ft | 148 kts | 163° |
| 2026-05-06 11:14 | 31.24404 | 121.75446 | 1721 ft | 148 kts | 163° |
| 2026-05-06 11:14 | 31.23463 | 121.75804 | 1533 ft | 136 kts | 162° |
| 2026-05-06 11:14 | 31.22550 | 121.76150 | 1342 ft | 141 kts | 161° |
| 2026-05-06 11:14 | 31.21618 | 121.76504 | 1153 ft | 140 kts | 161° |
| 2026-05-06 11:15 | 31.20707 | 121.76850 | 970 ft | 135 kts | 161° |
| 2026-05-06 11:15 | 31.19822 | 121.77183 | 778 ft | 134 kts | 161° |
| 2026-05-06 11:15 | 31.18923 | 121.77538 | 641 ft | 139 kts | 160° |
| 2026-05-06 11:15 | 31.17992 | 121.77899 | 421 ft | 144 kts | 160° |
| 2026-05-06 11:16 | 31.17055 | 121.78245 | 268 ft | 138 kts | 160° |
| 2026-05-06 11:16 | 31.16143 | 121.78587 | 86 ft | 139 kts | 161° |
| 2026-05-06 11:16 | 31.15253 | 121.78924 | 17 ft | 127 kts | 162° |
| 2026-05-06 11:16 | 31.14564 | 121.79186 | 18 ft | 78 kts | 163° |
| 2026-05-06 11:17 | 31.14213 | 121.79343 | 15 ft | 34 kts | 147° |
| 2026-05-06 11:17 | 31.14106 | 121.79446 | 15 ft | 0 kts | 133° |
| 2026-05-06 11:17 | 31.14104 | 121.79448 | 15 ft | 1 kts | 133° |
| 2026-05-06 11:17 | 31.14101 | 121.79452 | 15 ft | 1 kts | 133° |
| 2026-05-06 11:18 | 31.14095 | 121.79460 | 15 ft | 1 kts | 133° |
| 2026-05-06 11:18 | 31.14088 | 121.79468 | 15 ft | 1 kts | 133° |
| 2026-05-06 11:18 | 31.14081 | 121.79477 | 15 ft | 2 kts | 133° |
| 2026-05-06 11:18 | 31.14072 | 121.79488 | 15 ft | 3 kts | 133° |
| 2026-05-06 11:19 | 31.14053 | 121.79516 | 16 ft | 9 kts | 116° |
| 2026-05-06 11:19 | 31.14085 | 121.79591 | 16 ft | 12 kts | 15° |
| 2026-05-06 11:19 | 31.14184 | 121.79548 | 16 ft | 12 kts | 340° |
| 2026-05-06 11:19 | 31.14262 | 121.79516 | 16 ft | 12 kts | 341° |
| 2026-05-06 11:20 | 31.14341 | 121.79514 | 16 ft | 12 kts | 35° |
| 2026-05-06 11:20 | 31.14365 | 121.79549 | 16 ft | 1 kts | 59° |
| 2026-05-06 11:20 | 31.14368 | 121.79558 | 16 ft | 0 kts | 67° |
| 2026-05-06 11:20 | 31.14370 | 121.79564 | 16 ft | 1 kts | 67° |
| 2026-05-06 11:21 | 31.14375 | 121.79577 | 16 ft | 2 kts | 67° |
| 2026-05-06 11:21 | 31.14382 | 121.79597 | 16 ft | 3 kts | 67° |
| 2026-05-06 11:21 | 31.14384 | 121.79601 | 16 ft | 0 kts | 67° |
| 2026-05-06 11:21 | 31.14386 | 121.79609 | 16 ft | 2 kts | 70° |
| 2026-05-06 11:22 | 31.14396 | 121.79641 | 16 ft | 8 kts | 71° |
| 2026-05-06 11:22 | 31.14416 | 121.79708 | 16 ft | 9 kts | 71° |
| 2026-05-06 11:22 | 31.14454 | 121.79765 | 16 ft | 9 kts | 26° |
| 2026-05-06 11:22 | 31.14516 | 121.79796 | 16 ft | 10 kts | 37° |
| 2026-05-06 11:23 | 31.14546 | 121.79851 | 16 ft | 6 kts | 76° |
| 2026-05-06 11:23 | 31.14548 | 121.79860 | 16 ft | 1 kts | 75° |
| 2026-05-06 11:23 | 31.14548 | 121.79861 | 16 ft | 0 kts | 75° |